Kamrar, IA (50132)

5:41 AM CDT on July 25, 2014 (GMT -0500)
Rural Stanhope (KIASTANH1) Elev 1080 ft | 42.25 °N, 93.74 °W | Change Station

Current weather conditions updated 7 seconds ago

Rain
Rain
63.3 °F
Feels Like 63.3 °F
N
9.8
Wind Variable Wind from SE
Gusts 15.2 mph

Today is forecast to be Much Warmer than yesterday. Morning showers.

Today
High -- | Low -- °F
--% Chance of Precip.
Yesterday
High -- | Low -- °F
Precip. -- in
6:00 AM 8:41 PM
Waning Crescent, 2% visible
Pressure 29.89 in
Visibility 10.0 miles
Clouds Few 3000 ft
Scattered Clouds 4400 ft
Mostly Cloudy 6500 ft
Dew Point 63 °F
Humidity 99%
Rainfall 0.40 in
Snow Depth Not available.
UV 0 out of 12
Pollen 5.70 out of 12
Air Quality Not available.
Flu Activity Not available.
METAR KCAV 251035Z AUTO 15015G21KT 10SM FEW030 SCT044 BKN065 18/17 A2989 RMK AO2

More Conditions Fewer Conditions

Pressure 29.89 in
Visibility 10.0 miles
Clouds Few 3000 ft
Scattered Clouds 4400 ft
Mostly Cloudy 6500 ft
Dew Point 63 °F
Humidity 99%
Rainfall 0.40 in
Snow Depth Not available.
UV 0 out of 12
Pollen 5.70 out of 12
Air Quality Not available.
Flu Activity Not available.
METAR KCAV 251035Z AUTO 15015G21KT 10SM FEW030 SCT044 BKN065 18/17 A2989 RMK AO2

More Conditions Fewer Conditions

10-Day Weather Forecast

Almanac

Astronomy

Jul. 25, 2014 Rise Set
Actual Time 6:00 AM CDT 8:41 PM CDT
Civil Twilight 5:27 AM CDT 9:14 PM CDT
Nautical Twilight 4:46 AM CDT 9:55 PM CDT
Astronomical Twilight 4:00 AM CDT 10:41 PM CDT
Moon 5:01 AM CDT 7:38 PM CDT
Length of Visible Light 15h 46m
Length of Day
14h 41m
Tomorrow will be 1m 56s shorter.
Waning Crescent, 2% of the Moon is Illuminated
Today
Waning Crescent
Jul 26
New
Aug 3
First Quarter
Aug 10
Full
Aug 17
Last Quarter

Today's Extremes

State Highs State Lows

Community

WunderPhotos

Upload Photos

1,737,279 photos uploaded!

Nearby

Snow Depth

Station Depth Elevation
No new snow has been reported.

Earthquake Activity

City Distance Mag. Time & Date
No recent earthquake activity has been reported nearby.
Minimum magnitude displayed is 2.5.

Coastal Water Temperatures

Place Temperature
No Stations Reporting

Nearby Weather Stations

Station Location Temp. Dew Point Humidity Wind Precip. Elev Updated Type
Rural Stanhope, Stanhope, IA 63.3 °F 63 °F 99% SE  at  9.8 mph 0.00 in / hr 1080 ft 5:41 AM CDT Rapid Fire
Prairie Ridge, Story City, IA 64.8 °F 62 °F 92% South  at  8.3 mph 0.00 in / hr 1010 ft 5:38 AM CDT Rapid Fire
MesoWest GARDEN , Garden City, IA 61 °F - - North  at  - 0.00 in / hr 1200 ft 4:10 AM CDT MADIS
Maurer - GW Carver at 190th, Ames, IA 63.3 °F 62 °F 94% SE  at  6.0 mph 0.00 in / hr 981 ft 5:37 AM CDT Normal
Northridge, Ames, IA 63.9 °F 62 °F 95% ESE  at  4.2 mph - / hr 955 ft 5:32 AM CDT Normal
Duncombe School area, Fort Dodge, IA 64.0 °F 61 °F 91% NW  at  2.0 mph 0.00 in / hr 1109 ft 5:41 AM CDT Rapid Fire

Show More Stations Show Fewer Stations